Air Navigation Services of Czech Republic
Airport: LKKB Updated:  15.09.2019 21:00:26  UTC
 METAR LKKB 15.09. 21:00 ...
METAR LKKB 152100Z 21008KT CAVOK 18/13 Q1019 RMK BLU=
 TAF LKKB 15.09. 17:00 ...
TAF LKKB 151700Z 1518/1618 22008KT CAVOK      BECMG 1600/1602 32004KT      BECMG 1610/1612 35008KT SCT040      BECMG 1616/1618 BKN035=